createdAt,value
2022-09-21T00:03:23.196Z,82.41
2022-09-21T00:08:25.167Z,82.74
2022-09-21T00:13:28.221Z,82.71
2022-09-21T00:18:30.801Z,82.59
2022-09-21T00:23:35.213Z,82.37
2022-09-21T00:28:37.362Z,82.13
2022-09-21T00:33:40.214Z,82.35
2022-09-21T00:38:41.842Z,82.64
2022-09-21T00:44:18.503Z,83.02
2022-09-21T00:49:21.799Z,83.14
2022-09-21T00:54:29.240Z,83.26
2022-09-21T00:59:36.599Z,83.44
2022-09-21T01:04:38.891Z,83.42
2022-09-21T01:09:43.323Z,83.01
2022-09-21T01:15:18.223Z,83.28
2022-09-21T01:20:57.173Z,82.51
2022-09-21T01:26:17.888Z,81.70
2022-09-21T01:31:28.593Z,81.45
2022-09-21T01:36:32.937Z,81.85
2022-09-21T01:41:38.004Z,81.32
2022-09-21T01:46:39.772Z,81.91
2022-09-21T01:51:48.338Z,82.08
2022-09-21T01:56:59.612Z,82.21
2022-09-21T02:02:09.831Z,82.50
2022-09-21T02:07:12.035Z,82.59
2022-09-21T02:12:18.774Z,82.38
2022-09-21T02:17:36.606Z,82.60
2022-09-21T02:23:11.535Z,82.60
2022-09-21T02:28:28.411Z,82.11
2022-09-21T02:33:42.123Z,82.06
2022-09-21T02:39:05.579Z,81.94
2022-09-21T02:44:13.454Z,82.17
2022-09-21T02:49:45.006Z,82.61
2022-09-21T02:54:51.497Z,82.87
2022-09-21T02:59:53.966Z,83.03
2022-09-21T03:04:55.619Z,82.54
2022-09-21T03:09:57.230Z,82.46
2022-09-21T03:15:00.077Z,82.30
2022-09-21T03:20:02.385Z,82.22
2022-09-21T03:25:04.963Z,82.29
2022-09-21T03:30:07.009Z,82.30
2022-09-21T03:35:08.888Z,82.13
2022-09-21T03:40:12.523Z,81.80
2022-09-21T03:45:14.340Z,81.92
2022-09-21T03:50:16.086Z,81.56
2022-09-21T03:55:18.229Z,81.48
2022-09-21T04:00:20.433Z,81.22
2022-09-21T04:05:23.319Z,80.90
2022-09-21T04:10:32.705Z,80.72
2022-09-21T04:15:34.693Z,80.35
2022-09-21T04:20:36.307Z,80.65
2022-09-21T04:25:38.030Z,80.75
2022-09-21T04:30:40.264Z,81.24
2022-09-21T04:35:42.763Z,81.49
2022-09-21T04:40:44.408Z,80.29
2022-09-21T04:45:46.053Z,80.97
2022-09-21T04:50:51.219Z,81.45
2022-09-21T04:55:52.914Z,81.60
2022-09-21T05:00:58.426Z,81.39
2022-09-21T05:06:00.398Z,81.92
2022-09-21T05:11:02.118Z,82.58
2022-09-21T05:16:04.096Z,83.27
2022-09-21T05:21:07.337Z,83.07
2022-09-21T05:26:09.043Z,83.66
2022-09-21T05:31:29.043Z,84.20
2022-09-21T05:36:39.425Z,84.68
2022-09-21T05:41:41.583Z,85.37
2022-09-21T05:46:53.933Z,85.90
2022-09-21T05:52:24.491Z,85.88
2022-09-21T05:57:44.356Z,86.11
2022-09-21T06:03:15.493Z,86.51
2022-09-21T06:08:19.121Z,87.10
2022-09-21T06:13:21.047Z,87.51
2022-09-21T06:18:22.750Z,88.10
2022-09-21T06:23:25.300Z,88.26
2022-09-21T06:28:27.895Z,87.98
2022-09-21T06:33:29.716Z,88.10
2022-09-21T06:38:31.834Z,87.83
2022-09-21T06:43:33.631Z,87.54
2022-09-21T06:48:35.370Z,87.19
2022-09-21T06:53:37.086Z,87.62
2022-09-21T06:58:39.015Z,87.72
2022-09-21T07:03:42.040Z,88.41
2022-09-21T07:14:06.570Z,89.43
2022-09-21T07:19:11.895Z,89.99
2022-09-21T07:24:15.086Z,90.02
2022-09-21T07:29:16.718Z,90.15
2022-09-21T07:34:18.605Z,90.81
2022-09-21T07:39:20.284Z,90.68
2022-09-21T07:44:22.627Z,91.74
2022-09-21T07:49:24.284Z,92.33
2022-09-21T07:54:25.967Z,93.66
2022-09-21T07:59:27.773Z,94.84
2022-09-21T08:04:29.527Z,95.25
2022-09-21T08:09:31.164Z,95.94
2022-09-21T08:14:33.554Z,96.79
2022-09-21T08:19:36.271Z,96.67
2022-09-21T08:24:38.496Z,96.61
2022-09-21T08:29:40.129Z,96.07
2022-09-21T08:34:41.719Z,95.58
2022-09-21T08:39:43.404Z,93.40
2022-09-21T08:44:59.526Z,89.97
2022-09-21T08:50:03.815Z,89.10
2022-09-21T08:55:19.047Z,86.02
2022-09-21T09:00:21.135Z,84.17
2022-09-21T09:05:41.169Z,84.13
2022-09-21T09:10:54.965Z,81.96
2022-09-21T09:16:18.016Z,79.22
2022-09-21T09:21:30.842Z,78.33
2022-09-21T09:26:49.547Z,79.22
2022-09-21T09:31:54.718Z,76.97
2022-09-21T09:37:00.165Z,73.96
2022-09-21T09:42:21.997Z,75.67
2022-09-21T09:47:41.739Z,74.78
2022-09-21T09:52:44.034Z,74.44
2022-09-21T09:57:48.202Z,74.22
2022-09-21T10:02:58.698Z,75.17
2022-09-21T10:08:01.382Z,74.91
2022-09-21T10:13:12.524Z,72.21
2022-09-21T10:18:37.925Z,69.80
2022-09-21T10:23:40.061Z,69.14
2022-09-21T10:29:02.512Z,69.82
2022-09-21T10:34:04.207Z,68.90
2022-09-21T10:39:17.827Z,68.65
2022-09-21T10:44:22.298Z,64.96
2022-09-21T10:49:28.596Z,65.55
2022-09-21T10:54:33.297Z,65.40
2022-09-21T10:59:37.902Z,61.43
2022-09-21T11:04:48.166Z,62.33
2022-09-21T11:10:17.736Z,62.44
2022-09-21T11:15:46.119Z,63.29
2022-09-21T11:21:05.623Z,61.00
2022-09-21T11:26:18.528Z,62.32
2022-09-21T11:31:49.700Z,58.96
2022-09-21T11:36:51.598Z,59.75
2022-09-21T11:42:24.060Z,60.12
2022-09-21T11:47:55.483Z,60.24
2022-09-21T11:53:25.468Z,59.91
2022-09-21T11:58:54.259Z,60.18
2022-09-21T12:04:08.139Z,55.87
2022-09-21T12:09:47.281Z,57.66
2022-09-21T12:15:02.638Z,57.42
2022-09-21T12:20:28.109Z,56.73
2022-09-21T12:25:42.023Z,57.30
2022-09-21T12:30:49.035Z,56.04
2022-09-21T12:36:00.226Z,55.63
2022-09-21T12:41:40.124Z,54.75
2022-09-21T12:46:52.320Z,54.47
2022-09-21T12:51:59.215Z,53.09
2022-09-21T12:57:29.617Z,54.34
2022-09-21T13:03:01.437Z,54.28
2022-09-21T13:08:16.113Z,51.31
2022-09-21T13:13:45.066Z,52.51
2022-09-21T13:18:56.530Z,53.57
2022-09-21T13:24:04.501Z,54.53
2022-09-21T13:29:19.733Z,53.05
2022-09-21T13:34:23.195Z,52.59
2022-09-21T13:39:28.576Z,53.04
2022-09-21T13:44:33.495Z,51.56
2022-09-21T13:49:45.091Z,52.66
2022-09-21T13:54:52.079Z,51.01
2022-09-21T14:00:07.232Z,52.36
2022-09-21T14:05:30.679Z,53.77
2022-09-21T14:10:36.245Z,54.90
2022-09-21T14:15:39.901Z,50.27
2022-09-21T14:21:11.635Z,49.77
2022-09-21T14:26:39.600Z,48.66
2022-09-21T14:31:42.329Z,49.41
2022-09-21T14:36:47.004Z,50.23
2022-09-21T14:41:51.978Z,49.36
2022-09-21T14:47:12.540Z,50.59
2022-09-21T14:52:41.226Z,48.36
2022-09-21T14:58:14.391Z,50.90
2022-09-21T15:03:39.165Z,51.28
2022-09-21T15:09:13.778Z,51.13
2022-09-21T15:14:37.187Z,52.98
2022-09-21T15:19:38.853Z,54.26
2022-09-21T15:24:53.181Z,56.83
2022-09-21T15:29:56.494Z,57.13
2022-09-21T15:35:02.138Z,52.36
2022-09-21T15:40:07.549Z,53.55
2022-09-21T15:45:18.197Z,52.38
2022-09-21T15:50:20.768Z,52.53
2022-09-21T15:55:23.576Z,54.31
2022-09-21T16:00:30.304Z,53.16
2022-09-21T16:05:44.126Z,54.53
2022-09-21T16:10:45.892Z,53.85
2022-09-21T16:16:07.645Z,54.49
2022-09-21T16:21:30.915Z,55.56
2022-09-21T16:26:36.878Z,56.54
2022-09-21T16:31:38.973Z,57.33
2022-09-21T16:36:41.871Z,58.62
2022-09-21T16:41:49.347Z,59.93
2022-09-21T16:47:02.685Z,60.94
2022-09-21T16:52:05.671Z,61.50
2022-09-21T16:57:07.962Z,62.69
2022-09-21T17:02:13.988Z,64.11
2022-09-21T17:07:17.050Z,65.23
2022-09-21T17:12:18.827Z,66.28
2022-09-21T17:17:23.395Z,67.38
2022-09-21T17:22:25.489Z,68.52
2022-09-21T17:27:29.062Z,69.88
2022-09-21T17:32:33.154Z,70.90
2022-09-21T17:37:38.077Z,71.40
2022-09-21T17:42:40.843Z,72.21
2022-09-21T17:47:42.920Z,72.21
2022-09-21T17:53:03.808Z,72.61
2022-09-21T17:58:18.590Z,73.11
2022-09-21T18:03:32.027Z,73.82
2022-09-21T18:08:36.109Z,73.87
2022-09-21T18:13:56.778Z,74.08
2022-09-21T18:19:19.881Z,73.45
2022-09-21T18:24:30.976Z,74.04
2022-09-21T18:29:42.098Z,73.90
2022-09-21T18:35:08.877Z,74.79
2022-09-21T18:40:23.648Z,74.62
2022-09-21T18:45:32.730Z,74.87
2022-09-21T18:50:55.696Z,74.84
2022-09-21T18:55:57.441Z,74.92
2022-09-21T19:01:00.305Z,75.71
2022-09-21T19:06:15.063Z,76.06
2022-09-21T19:11:27.327Z,75.66
2022-09-21T19:16:33.124Z,75.83
2022-09-21T19:21:48.143Z,75.97
2022-09-21T19:27:08.575Z,76.15
2022-09-21T19:32:45.466Z,76.51
2022-09-21T19:37:48.504Z,76.46
2022-09-21T19:43:10.077Z,76.54
2022-09-21T19:48:15.470Z,77.03
2022-09-21T19:53:36.312Z,77.35
2022-09-21T19:58:56.855Z,77.30
2022-09-21T20:03:59.915Z,78.02
2022-09-21T20:09:11.846Z,77.96
2022-09-21T20:14:53.124Z,78.35
2022-09-21T20:20:13.715Z,77.63
2022-09-21T20:25:22.993Z,78.17
2022-09-21T20:30:28.445Z,78.11
2022-09-21T20:35:30.831Z,78.53
2022-09-21T20:40:33.099Z,77.86
2022-09-21T20:45:35.466Z,78.33
2022-09-21T20:50:37.387Z,78.30
2022-09-21T20:55:41.019Z,78.24
2022-09-21T21:00:42.686Z,78.83
2022-09-21T21:05:44.861Z,78.65
2022-09-21T21:10:46.934Z,78.89
2022-09-21T21:15:53.007Z,78.48
2022-09-21T21:20:54.819Z,78.50
2022-09-21T21:25:59.139Z,78.20
2022-09-21T21:31:01.036Z,78.43
2022-09-21T21:36:06.504Z,78.24
2022-09-21T21:41:08.272Z,77.24
2022-09-21T21:46:10.982Z,77.48
2022-09-21T21:51:12.799Z,77.61
2022-09-21T21:56:17.078Z,77.67
2022-09-21T22:01:21.296Z,78.02
2022-09-21T22:06:24.115Z,78.47
2022-09-21T22:11:27.347Z,78.13
2022-09-21T22:16:31.412Z,77.98
2022-09-21T22:21:38.657Z,78.58
2022-09-21T22:26:45.163Z,78.46
2022-09-21T22:31:48.995Z,78.30
2022-09-21T22:36:50.845Z,78.34
2022-09-21T22:41:52.486Z,78.29
2022-09-21T22:46:54.349Z,77.65
2022-09-21T22:51:56.162Z,77.27
2022-09-21T22:56:57.769Z,77.63
2022-09-21T23:01:59.423Z,77.81
2022-09-21T23:07:01.029Z,77.79
2022-09-21T23:12:02.702Z,77.91
2022-09-21T23:17:04.374Z,77.99
2022-09-21T23:22:06.610Z,77.61
2022-09-21T23:27:08.250Z,77.69
2022-09-21T23:32:09.869Z,77.87
2022-09-21T23:37:11.716Z,77.62
2022-09-21T23:42:13.377Z,77.62
2022-09-21T23:47:15.109Z,77.69
2022-09-21T23:52:17.077Z,76.51
2022-09-21T23:57:18.723Z,76.53
